Time;durP1;ratioP1;P1;durP2;ratioP2;P2;SDS_P1;SDS_P2;PMS_P1;PMS_P2;Temp;Humidity;BMP_temperature;BMP_pressure;BME280_temperature;BME280_humidity;BME280_pressure;Samples;Min_cycle;Max_cycle;Signal;HPM_P1;HPM_P2
2023/03/05 00:02:24;;;;;;;4.80;1.00;;;;;;;-2.66;100.00;98366.60;110420;1275;22267;-68
2023/03/05 00:04:53;;;;;;;2.10;0.60;;;;;;;-2.63;100.00;98373.17;110459;1260;22414;-68
2023/03/05 00:07:22;;;;;;;0.90;0.40;;;;;;;-2.62;100.00;98372.47;110393;1275;22223;-68
2023/03/05 00:09:51;;;;;;;4.70;0.70;;;;;;;-2.64;100.00;98373.52;110403;1275;22301;-68
2023/03/05 00:12:19;;;;;;;2.00;0.70;;;;;;;-2.68;100.00;98374.99;110422;1275;22782;-68
2023/03/05 00:14:48;;;;;;;2.90;0.60;;;;;;;-2.72;100.00;98374.66;110275;1275;22157;-68
2023/03/05 00:17:22;;;;;;;2.40;0.60;;;;;;;-2.78;100.00;98374.55;110404;1275;22955;-68
2023/03/05 00:19:51;;;;;;;2.50;0.50;;;;;;;-2.83;100.00;98377.30;110444;1275;22419;-68
2023/03/05 00:22:19;;;;;;;3.20;0.80;;;;;;;-2.88;100.00;98379.27;110457;1275;22264;-68
2023/03/05 00:24:51;;;;;;;2.90;0.60;;;;;;;-2.92;100.00;98386.29;110466;1275;22197;-68
2023/03/05 00:27:20;;;;;;;1.80;0.70;;;;;;;-2.97;100.00;98393.58;110475;1275;22167;-68
2023/03/05 00:29:49;;;;;;;3.60;1.00;;;;;;;-3.03;100.00;98396.08;110402;1275;22234;-68
2023/03/05 00:32:17;;;;;;;2.50;0.70;;;;;;;-3.06;100.00;98398.93;110403;1275;22215;-68
2023/03/05 00:34:46;;;;;;;2.20;0.70;;;;;;;-3.09;100.00;98397.73;110173;1275;22530;-68
2023/03/05 00:37:19;;;;;;;3.50;1.00;;;;;;;-3.14;100.00;98396.51;107587;1275;23280;-68
2023/03/05 00:39:47;;;;;;;2.50;0.70;;;;;;;-3.17;100.00;98400.48;107646;1275;24240;-68
2023/03/05 00:42:15;;;;;;;3.10;0.70;;;;;;;-3.14;100.00;98403.21;107695;1275;23018;-68
2023/03/05 00:44:43;;;;;;;3.10;0.70;;;;;;;-3.13;100.00;98404.80;107691;1275;22539;-67
2023/03/05 00:47:12;;;;;;;2.30;0.60;;;;;;;-3.17;100.00;98407.53;107760;1270;22619;-67
2023/03/05 00:49:40;;;;;;;4.10;0.50;;;;;;;-3.19;100.00;98410.08;107585;1275;22518;-68
2023/03/05 00:52:09;;;;;;;3.00;0.80;;;;;;;-3.21;100.00;98410.30;107467;1275;22571;-67
2023/03/05 00:54:37;;;;;;;3.10;0.60;;;;;;;-3.25;100.00;98417.20;107523;1275;22540;-67
2023/03/05 00:57:06;;;;;;;3.30;0.70;;;;;;;-3.26;100.00;98417.72;107545;1275;25356;-67
2023/03/05 00:59:35;;;;;;;4.00;0.60;;;;;;;-3.27;100.00;98421.45;107355;1273;25415;-67
2023/03/05 01:02:04;;;;;;;2.30;0.40;;;;;;;-3.30;100.00;98421.27;107382;1275;23893;-67
2023/03/05 01:04:33;;;;;;;3.90;0.50;;;;;;;-3.31;100.00;98428.52;107388;1275;25497;-67
2023/03/05 01:07:03;;;;;;;3.10;0.60;;;;;;;-3.33;100.00;98428.98;107484;1275;26692;-67
2023/03/05 01:09:33;;;;;;;1.40;0.30;;;;;;;-3.34;100.00;98431.94;107521;1275;25321;-67
2023/03/05 01:12:07;;;;;;;2.40;0.70;;;;;;;-3.30;100.00;98435.47;107355;1275;25328;-67
2023/03/05 01:14:36;;;;;;;2.60;0.60;;;;;;;-3.27;100.00;98436.98;107544;1276;26665;-67
2023/03/05 01:17:04;;;;;;;2.10;0.60;;;;;;;-3.30;100.00;98436.33;107674;1275;25368;-68
2023/03/05 01:19:35;;;;;;;3.60;0.80;;;;;;;-3.33;100.00;98431.73;107451;1275;23162;-67
2023/03/05 01:22:04;;;;;;;2.80;0.60;;;;;;;-3.36;100.00;98439.23;110456;1275;23125;-68
2023/03/05 01:24:32;;;;;;;2.10;0.40;;;;;;;-3.39;100.00;98438.77;110433;1275;22974;-68
2023/03/05 01:27:00;;;;;;;2.10;0.60;;;;;;;-3.41;100.00;98441.15;110391;1275;22297;-67
2023/03/05 01:29:29;;;;;;;2.90;0.40;;;;;;;-3.41;100.00;98438.73;110358;1275;22197;-68
2023/03/05 01:32:01;;;;;;;4.60;1.00;;;;;;;-3.43;100.00;98442.09;110426;1275;22206;-68
2023/03/05 01:34:29;;;;;;;3.10;0.40;;;;;;;-3.39;100.00;98445.80;110449;1275;22865;-68
2023/03/05 01:37:00;;;;;;;1.40;0.30;;;;;;;-3.33;100.00;98448.06;110437;1275;22237;-68
2023/03/05 01:39:29;;;;;;;2.10;0.50;;;;;;;-3.37;100.00;98450.25;108241;1275;25495;-68
2023/03/05 01:41:57;;;;;;;2.80;0.80;;;;;;;-3.40;100.00;98454.05;107404;1275;24249;-67
2023/03/05 01:44:27;;;;;;;4.10;1.10;;;;;;;-3.47;100.00;98452.55;107563;1275;26590;-67
2023/03/05 01:46:55;;;;;;;4.20;1.40;;;;;;;-3.50;100.00;98455.52;107424;1276;25244;-67
2023/03/05 01:49:28;;;;;;;5.20;1.40;;;;;;;-3.54;100.00;98456.77;107830;1275;23118;-67
2023/03/05 01:52:35;;;;;;;5.70;1.10;;;;;;;-3.57;100.00;98455.44;107520;1260;22600;-67
2023/03/05 02:00:34;;;;;;;;;;;;;;;;;;;;;
2023/03/05 02:03:53;;;;;;;2.50;0.80;;;;;;;-3.54;100.00;98469.00;108413;1275;24219;-67
2023/03/05 02:06:58;;;;;;;;;;;;;;;;;;;;;
2023/03/05 02:09:59;;;;;;;2.60;0.80;;;;;;;-3.50;100.00;98474.84;107412;1275;24403;-67
2023/03/05 02:12:33;;;;;;;2.40;0.90;;;;;;;-3.50;100.00;98473.73;107424;1275;22928;-67
2023/03/05 02:15:05;;;;;;;1.90;0.50;;;;;;;-3.40;100.00;98476.88;107624;1275;22562;-67
2023/03/05 02:17:33;;;;;;;2.30;0.60;;;;;;;-3.31;100.00;98478.17;107620;1275;23727;-67
2023/03/05 02:20:16;;;;;;;6.10;1.20;;;;;;;-3.29;100.00;98484.30;110381;1275;23041;-67
2023/03/05 02:23:40;;;;;;;;;;;;;;;;;;;;;
2023/03/05 02:27:34;;;;;;;;;;;;;;;;;;;;;
2023/03/05 02:31:37;;;;;;;;;;;;;;;;;;;;;
2023/03/05 02:35:27;;;;;;;5.70;0.90;;;;;;;-3.27;100.00;98494.74;110260;1275;22185;-67
2023/03/05 02:38:58;;;;;;;3.50;1.10;;;;;;;-3.16;100.00;98497.26;110163;1276;22267;-68
2023/03/05 02:53:25;;;;;;;5.40;1.80;;;;;;;-3.18;100.00;98511.27;106092;1288;22808;-66
2023/03/05 02:56:38;;;;;;;;;;;;;;;;;;;;;
2023/03/05 02:59:46;;;;;;;10.00;3.40;;;;;;;-3.32;100.00;98511.55;109508;1290;22512;-67
2023/03/05 03:02:54;;;;;;;;;;;;;;;;;;;;;
2023/03/05 03:05:42;;;;;;;6.60;1.80;;;;;;;-3.45;100.00;98510.59;109910;1283;22190;-67
2023/03/05 03:08:36;;;;;;;4.50;1.30;;;;;;;-3.41;100.00;98514.25;109941;1260;22288;-67
2023/03/05 03:11:50;;;;;;;5.20;1.50;;;;;;;-3.37;100.00;98513.87;109778;1282;23164;-67
2023/03/05 03:14:32;;;;;;;6.00;1.40;;;;;;;-3.40;100.00;98515.58;108323;1270;1002529;-66
2023/03/05 03:17:28;;;;;;;4.30;1.20;;;;;;;-3.41;100.00;98522.16;106829;1283;22530;-66
2023/03/05 03:20:21;;;;;;;;;;;;;;;;;;;;;
2023/03/05 03:23:08;;;;;;;2.00;0.70;;;;;;;-3.26;100.00;98526.34;106872;1282;22547;-67
2023/03/05 03:29:20;;;;;;;2.20;0.80;;;;;;;-3.27;100.00;98537.28;106857;1282;25472;-67
2023/03/05 03:31:59;;;;;;;3.50;0.70;;;;;;;-3.30;100.00;98538.00;108694;1276;22408;-67
2023/03/05 03:35:14;;;;;;;1.80;0.60;;;;;;;-3.23;100.00;98533.90;106886;1282;25375;-67
2023/03/05 03:37:47;;;;;;;3.10;0.50;;;;;;;-3.19;100.00;98533.46;106852;1282;25313;-67
2023/03/05 03:40:37;;;;;;;;;;;;;;;;;;;;;
2023/03/05 03:43:29;;;;;;;3.90;0.80;;;;;;;-3.27;100.00;98532.01;106724;1283;25379;-67
2023/03/05 03:46:07;;;;;;;3.90;0.80;;;;;;;-3.29;100.00;98534.53;106783;1283;23671;-66
2023/03/05 03:48:36;;;;;;;2.50;0.70;;;;;;;-3.26;100.00;98537.64;106795;1283;23287;-67
2023/03/05 03:51:05;;;;;;;2.70;0.80;;;;;;;-3.17;100.00;98536.73;106831;1282;25252;-67
2023/03/05 03:53:33;;;;;;;4.40;1.10;;;;;;;-3.14;100.00;98538.98;106905;1282;24225;-67
2023/03/05 03:56:02;;;;;;;4.30;0.70;;;;;;;-3.14;100.00;98538.27;107283;1282;22516;-68
2023/03/05 03:58:31;;;;;;;2.90;0.70;;;;;;;-3.14;100.00;98534.71;107210;1282;22648;-67
2023/03/05 04:00:59;;;;;;;1.30;0.60;;;;;;;-3.15;100.00;98536.77;107029;1283;24282;-68
2023/03/05 04:03:29;;;;;;;3.10;0.70;;;;;;;-3.13;100.00;98538.27;109850;1283;23111;-68
2023/03/05 04:05:57;;;;;;;3.40;1.00;;;;;;;-3.06;100.00;98540.98;109853;1283;23099;-68
2023/03/05 04:08:30;;;;;;;2.30;0.70;;;;;;;-3.00;100.00;98541.06;109895;1283;22406;-68
2023/03/05 04:11:00;;;;;;;3.80;0.90;;;;;;;-3.00;100.00;98543.07;109869;1282;23186;-68
2023/03/05 04:13:28;;;;;;;4.10;0.70;;;;;;;-3.01;100.00;98544.01;109895;1283;22743;-68
2023/03/05 04:15:57;;;;;;;4.60;0.70;;;;;;;-3.00;100.00;98540.03;109886;1283;22211;-68
2023/03/05 04:18:25;;;;;;;2.10;0.70;;;;;;;-3.00;100.00;98541.46;107060;1282;24221;-68
2023/03/05 04:20:53;;;;;;;3.20;1.00;;;;;;;-2.99;100.00;98539.91;107049;1282;22523;-68
2023/03/05 04:23:22;;;;;;;2.50;0.90;;;;;;;-2.93;100.00;98541.10;107078;1282;22635;-67
2023/03/05 04:25:50;;;;;;;4.00;0.90;;;;;;;-2.93;100.00;98539.79;106844;1282;22545;-68
2023/03/05 04:28:21;;;;;;;3.40;1.10;;;;;;;-2.95;100.00;98540.63;107454;1276;23291;-68
2023/03/05 04:30:51;;;;;;;1.70;0.70;;;;;;;-2.98;100.00;98536.38;107247;1277;25303;-68
2023/03/05 04:33:19;;;;;;;3.10;0.70;;;;;;;-3.00;100.00;98538.59;107050;1283;25360;-68
2023/03/05 04:35:49;;;;;;;3.70;0.60;;;;;;;-2.99;100.00;98544.08;107018;1283;22547;-67
2023/03/05 04:38:21;;;;;;;2.50;0.50;;;;;;;-2.93;100.00;98544.70;107016;1280;22547;-67
2023/03/05 04:40:49;;;;;;;2.10;0.50;;;;;;;-2.93;100.00;98544.00;107052;1282;23859;-67
2023/03/05 04:43:17;;;;;;;1.70;0.60;;;;;;;-2.95;100.00;98545.59;107074;1282;26192;-67
2023/03/05 04:45:46;;;;;;;3.20;0.70;;;;;;;-2.97;100.00;98548.01;109881;1282;22882;-68
2023/03/05 04:48:15;;;;;;;1.90;0.60;;;;;;;-2.98;100.00;98556.04;109895;1282;22311;-67
2023/03/05 04:50:43;;;;;;;3.40;0.60;;;;;;;-2.97;100.00;98557.34;109933;1282;22929;-68
2023/03/05 04:53:12;;;;;;;5.50;0.90;;;;;;;-2.90;100.00;98563.83;109925;1282;22210;-68
2023/03/05 04:55:40;;;;;;;3.70;0.80;;;;;;;-2.88;100.00;98560.27;109944;1282;22787;-66
2023/03/05 04:58:09;;;;;;;4.50;0.70;;;;;;;-2.87;100.00;98566.47;109843;1279;22387;-67
2023/03/05 05:00:37;;;;;;;3.80;0.90;;;;;;;-2.87;100.00;98571.25;109890;1282;22270;-67
2023/03/05 05:03:07;;;;;;;2.80;1.00;;;;;;;-2.87;100.00;98574.73;109890;1283;22312;-68
2023/03/05 05:05:36;;;;;;;5.70;2.00;;;;;;;-2.86;100.00;98578.13;109894;1283;22306;-67
2023/03/05 05:08:08;;;;;;;4.40;1.30;;;;;;;-2.78;100.00;98581.48;109845;1277;22425;-69
2023/03/05 05:10:40;;;;;;;5.50;1.20;;;;;;;-2.71;100.00;98580.79;110005;1279;22243;-68
2023/03/05 05:13:08;;;;;;;3.60;0.90;;;;;;;-2.71;100.00;98584.35;109992;1280;23024;-68
2023/03/05 05:15:39;;;;;;;4.80;1.30;;;;;;;-2.73;100.00;98588.22;109986;1280;22187;-68
2023/03/05 05:18:08;;;;;;;3.40;0.70;;;;;;;-2.74;100.00;98592.36;109990;1281;22175;-69
2023/03/05 05:20:38;;;;;;;4.70;1.20;;;;;;;-2.76;100.00;98588.77;110014;1281;22168;-68
2023/03/05 05:23:07;;;;;;;4.20;0.80;;;;;;;-2.76;100.00;98588.28;110053;1280;22358;-69
2023/03/05 05:25:35;;;;;;;2.60;0.80;;;;;;;-2.76;100.00;98590.66;110061;1274;22427;-69
2023/03/05 05:28:04;;;;;;;4.30;1.00;;;;;;;-2.72;100.00;98585.22;109873;1279;25418;-68
2023/03/05 05:30:32;;;;;;;3.10;0.70;;;;;;;-2.67;100.00;98592.73;107496;1279;25382;-69
2023/03/05 05:33:01;;;;;;;5.40;0.90;;;;;;;-2.70;100.00;98595.10;107403;1279;25287;-67
2023/03/05 05:35:29;;;;;;;3.20;1.10;;;;;;;-2.71;100.00;98592.42;107817;1279;25353;-67
2023/03/05 05:37:57;;;;;;;4.60;0.90;;;;;;;-2.71;100.00;98595.05;107192;1279;25288;-67
2023/03/05 05:40:27;;;;;;;3.40;0.90;;;;;;;-2.73;100.00;98594.41;107256;1279;25297;-67
2023/03/05 05:42:55;;;;;;;3.90;1.00;;;;;;;-2.75;100.00;98596.80;107382;1279;25351;-67
2023/03/05 05:45:23;;;;;;;4.00;1.10;;;;;;;-2.67;100.00;98597.69;107584;1279;25326;-67
2023/03/05 05:47:53;;;;;;;4.30;0.90;;;;;;;-2.63;100.00;98598.10;107313;1279;25497;-68
2023/03/05 05:50:26;;;;;;;2.60;0.90;;;;;;;-2.63;100.00;98599.60;107230;1279;25432;-68
2023/03/05 05:52:54;;;;;;;4.00;0.80;;;;;;;-2.64;100.00;98603.73;107317;1279;22693;-68
2023/03/05 05:55:22;;;;;;;2.40;1.00;;;;;;;-2.62;100.00;98604.42;107303;1279;23290;-68
2023/03/05 05:58:11;;;;;;;2.60;0.80;;;;;;;-2.61;100.00;98603.23;107350;1279;24341;-68
2023/03/05 06:00:43;;;;;;;2.90;0.60;;;;;;;-2.57;100.00;98603.05;107363;1279;23861;-68
2023/03/05 06:03:12;;;;;;;3.40;0.80;;;;;;;-2.49;100.00;98597.56;107382;1279;22636;-68
2023/03/05 06:05:41;;;;;;;3.60;1.00;;;;;;;-2.48;100.00;98596.20;110046;1279;22220;-68
2023/03/05 06:08:09;;;;;;;4.40;1.00;;;;;;;-2.51;100.00;98594.30;110138;1279;23160;-68
2023/03/05 06:10:38;;;;;;;3.10;0.80;;;;;;;-2.46;100.00;98595.95;110156;1279;22194;-68
2023/03/05 06:13:12;;;;;;;3.70;1.10;;;;;;;-2.32;100.00;98594.54;110149;1279;22930;-68
2023/03/05 06:15:40;;;;;;;3.10;1.10;;;;;;;-2.10;100.00;98597.23;107598;1279;22553;-68
2023/03/05 06:18:09;;;;;;;3.20;1.00;;;;;;;-1.89;100.00;98603.28;107229;1279;25446;-68
2023/03/05 06:20:38;;;;;;;4.80;1.60;;;;;;;-1.71;100.00;98604.59;107187;1279;22538;-68
2023/03/05 06:23:07;;;;;;;3.60;1.30;;;;;;;-1.58;100.00;98601.42;107234;1279;22571;-68
2023/03/05 06:25:36;;;;;;;5.10;1.70;;;;;;;-1.48;100.00;98602.66;107194;1280;25300;-68
2023/03/05 06:28:05;;;;;;;4.20;1.10;;;;;;;-1.38;100.00;98602.02;106956;1280;22538;-68
2023/03/05 06:30:34;;;;;;;3.00;1.00;;;;;;;-1.30;100.00;98604.11;107177;1280;27609;-68
2023/03/05 06:33:03;;;;;;;4.20;1.40;;;;;;;-1.29;100.00;98608.32;107248;1279;25361;-68
2023/03/05 06:35:31;;;;;;;3.70;1.10;;;;;;;-1.30;100.00;98613.25;107233;1279;24206;-68
2023/03/05 06:38:00;;;;;;;3.90;0.90;;;;;;;-1.33;100.00;98614.44;107299;1279;22675;-68
2023/03/05 06:40:28;;;;;;;3.60;1.20;;;;;;;-1.34;100.00;98615.48;107391;1278;25359;-68
2023/03/05 06:42:57;;;;;;;6.10;1.90;;;;;;;-1.29;100.00;98621.14;107548;1279;22749;-68
2023/03/05 06:45:25;;;;;;;4.80;1.40;;;;;;;-1.18;100.00;98620.09;107570;1278;25369;-68
2023/03/05 06:47:54;;;;;;;4.60;1.40;;;;;;;-1.12;100.00;98616.17;107355;1278;22910;-68
2023/03/05 06:50:22;;;;;;;3.60;1.10;;;;;;;-1.05;100.00;98618.25;107356;1278;22552;-68
2023/03/05 06:52:50;;;;;;;4.50;1.10;;;;;;;-1.00;100.00;98618.33;107367;1278;22530;-68
2023/03/05 06:55:22;;;;;;;4.50;1.30;;;;;;;-1.03;100.00;98619.33;107318;1278;25372;-68
2023/03/05 06:57:51;;;;;;;3.30;1.00;;;;;;;-1.02;100.00;98615.60;107357;1278;25517;-68
2023/03/05 07:00:19;;;;;;;3.70;1.50;;;;;;;-1.01;100.00;98619.00;107363;1278;24247;-68
2023/03/05 07:02:48;;;;;;;5.20;1.70;;;;;;;-0.97;100.00;98618.83;110194;1278;23144;-68
2023/03/05 07:05:16;;;;;;;3.40;1.10;;;;;;;-0.92;100.00;98617.32;110380;1276;22273;-69
2023/03/05 07:07:48;;;;;;;4.20;1.10;;;;;;;-0.80;100.00;98619.54;110371;1276;22530;-68
2023/03/05 07:10:16;;;;;;;3.50;1.20;;;;;;;-0.67;100.00;98615.53;110392;1275;22164;-69
2023/03/05 07:12:51;;;;;;;4.40;1.10;;;;;;;-0.53;100.00;98624.67;110407;1276;22266;-67
2023/03/05 07:15:20;;;;;;;3.80;1.00;;;;;;;-0.57;100.00;98619.63;110446;1275;22209;-67
2023/03/05 07:17:48;;;;;;;3.70;1.00;;;;;;;-0.61;100.00;98625.66;110444;1276;22251;-67
2023/03/05 07:20:18;;;;;;;4.60;1.10;;;;;;;-0.66;100.00;98622.80;110422;1276;24019;-67
2023/03/05 07:22:46;;;;;;;2.20;0.80;;;;;;;-0.58;100.00;98625.95;110444;1275;22258;-68
2023/03/05 07:25:20;;;;;;;4.80;1.10;;;;;;;-0.49;100.00;98628.73;110421;1276;22218;-67
2023/03/05 07:27:49;;;;;;;4.10;1.20;;;;;;;-0.46;100.00;98638.20;110412;1276;23088;-67
2023/03/05 07:30:18;;;;;;;3.40;0.80;;;;;;;-0.46;100.00;98644.33;110394;1272;22230;-67
2023/03/05 07:32:46;;;;;;;3.80;0.90;;;;;;;-0.55;100.00;98641.81;110449;1276;23036;-67
2023/03/05 07:35:15;;;;;;;5.10;1.20;;;;;;;-0.64;100.00;98648.60;110399;1276;22201;-67
2023/03/05 07:37:44;;;;;;;4.60;1.00;;;;;;;-0.69;100.00;98653.65;110432;1276;23065;-67
2023/03/05 07:40:12;;;;;;;3.70;1.20;;;;;;;-0.70;100.00;98656.66;110389;1276;22263;-67
2023/03/05 07:42:44;;;;;;;4.30;1.00;;;;;;;-0.71;100.00;98658.15;110422;1276;22289;-67
2023/03/05 07:45:16;;;;;;;2.30;0.70;;;;;;;-0.70;100.00;98661.42;110306;1276;22358;-67
2023/03/05 07:47:44;;;;;;;3.60;1.00;;;;;;;-0.71;100.00;98658.52;110272;1276;22226;-68
2023/03/05 07:50:12;;;;;;;5.40;1.40;;;;;;;-0.66;100.00;98657.97;110409;1276;22332;-67
2023/03/05 07:52:41;;;;;;;6.00;1.50;;;;;;;-0.57;100.00;98661.41;110389;1276;22429;-68
2023/03/05 07:55:09;;;;;;;3.10;1.50;;;;;;;-0.52;100.00;98663.48;110384;1276;22378;-68
2023/03/05 07:57:38;;;;;;;5.50;1.60;;;;;;;-0.42;100.00;98664.49;110399;1276;22221;-68
2023/03/05 08:00:07;;;;;;;5.70;1.20;;;;;;;-0.34;100.00;98660.85;110306;1277;22214;-67
2023/03/05 08:02:43;;;;;;;3.30;1.30;;;;;;;-0.32;100.00;98662.18;110155;1277;22187;-67
2023/03/05 08:05:11;;;;;;;6.30;1.00;;;;;;;-0.31;100.00;98665.21;108758;1276;22531;-67
2023/03/05 08:07:53;;;;;;;5.40;1.50;;;;;;;-0.35;100.00;98661.52;107334;1276;26568;-67
2023/03/05 08:10:21;;;;;;;3.90;1.10;;;;;;;-0.48;100.00;98662.14;108211;1277;25376;-67
2023/03/05 08:12:49;;;;;;;5.00;1.40;;;;;;;-0.49;100.00;98668.80;107387;1276;22539;-67
2023/03/05 08:15:18;;;;;;;4.20;0.90;;;;;;;-0.47;100.00;98664.29;107497;1276;25424;-68
2023/03/05 08:17:46;;;;;;;3.40;0.90;;;;;;;-0.48;100.00;98668.08;107629;1276;22519;-68
2023/03/05 08:20:14;;;;;;;3.30;1.00;;;;;;;-0.53;100.00;98668.23;107503;1277;23653;-67
2023/03/05 08:22:44;;;;;;;4.70;1.30;;;;;;;-0.62;100.00;98667.27;107434;1277;25423;-68
2023/03/05 08:25:16;;;;;;;4.60;1.30;;;;;;;-0.67;100.00;98672.43;107337;1277;25431;-67
2023/03/05 08:27:45;;;;;;;4.30;1.10;;;;;;;-0.62;100.00;98668.18;107678;1276;23280;-67
2023/03/05 08:30:19;;;;;;;4.20;0.80;;;;;;;-0.55;100.00;98669.24;107136;1277;25260;-67
2023/03/05 08:32:48;;;;;;;3.90;1.20;;;;;;;-0.41;100.00;98673.50;107301;1277;25519;-67
2023/03/05 08:35:16;;;;;;;4.20;1.00;;;;;;;-0.21;100.00;98674.61;110185;1277;22926;-68
2023/03/05 08:37:45;;;;;;;3.10;0.90;;;;;;;-0.06;100.00;98671.25;110305;1276;22301;-68
2023/03/05 08:40:14;;;;;;;2.80;0.80;;;;;;;0.13;100.00;98672.00;110406;1276;22384;-68
2023/03/05 08:42:42;;;;;;;3.30;1.00;;;;;;;0.37;100.00;98671.63;110395;1276;23029;-68
2023/03/05 08:45:11;;;;;;;3.30;0.90;;;;;;;0.63;100.00;98673.56;110437;1276;22213;-68
2023/03/05 08:47:42;;;;;;;2.90;1.20;;;;;;;0.92;100.00;98673.73;110435;1275;22201;-68
2023/03/05 08:50:11;;;;;;;3.10;1.10;;;;;;;1.11;100.00;98668.33;110446;1276;22227;-68
2023/03/05 08:52:39;;;;;;;4.60;1.30;;;;;;;1.24;100.00;98670.85;110413;1276;22934;-69
2023/03/05 08:55:08;;;;;;;2.90;1.10;;;;;;;1.35;100.00;98668.77;108802;1276;25475;-68
2023/03/05 08:57:36;;;;;;;3.60;1.30;;;;;;;1.46;100.00;98672.76;107822;1273;25058;-67
2023/03/05 09:00:06;;;;;;;5.20;1.00;;;;;;;1.56;100.00;98674.06;107420;1276;22577;-68
2023/03/05 09:02:34;;;;;;;4.50;1.00;;;;;;;1.65;100.00;98672.10;107634;1276;22538;-68
2023/03/05 09:05:03;;;;;;;2.80;1.20;;;;;;;1.82;100.00;98673.91;107550;1276;27065;-68
2023/03/05 09:07:31;;;;;;;2.20;1.00;;;;;;;1.82;100.00;98677.08;107417;1276;23041;-67
2023/03/05 09:10:00;;;;;;;3.40;1.10;;;;;;;1.81;100.00;98676.30;107549;1276;22514;-68
2023/03/05 09:12:29;;;;;;;2.90;0.90;;;;;;;1.90;100.00;98676.77;107802;1276;25296;-67
2023/03/05 09:14:58;;;;;;;5.00;1.30;;;;;;;1.99;100.00;98674.27;107557;1270;26301;-68
2023/03/05 09:17:27;;;;;;;2.10;0.80;;;;;;;2.11;100.00;98680.64;107328;1276;22575;-68
2023/03/05 09:19:55;;;;;;;4.10;1.30;;;;;;;2.08;100.00;98675.39;107397;1275;23664;-68
2023/03/05 09:22:27;;;;;;;3.30;1.30;;;;;;;2.06;100.00;98677.55;107440;1276;25567;-67
2023/03/05 09:24:55;;;;;;;3.80;1.20;;;;;;;2.04;100.00;98669.89;107502;1276;22539;-68
2023/03/05 09:27:24;;;;;;;3.50;1.20;;;;;;;2.09;100.00;98665.84;107564;1276;25366;-68
2023/03/05 09:29:52;;;;;;;2.90;1.40;;;;;;;2.18;100.00;98664.86;107618;1276;22721;-68
2023/03/05 09:32:20;;;;;;;3.00;1.20;;;;;;;2.21;100.00;98665.84;107672;1276;22528;-68
2023/03/05 09:34:48;;;;;;;3.10;0.90;;;;;;;2.21;100.00;98663.25;107950;1275;26208;-68
2023/03/05 09:37:16;;;;;;;3.80;1.40;;;;;;;2.31;100.00;98662.81;107624;1276;22746;-68
2023/03/05 09:39:44;;;;;;;5.30;1.70;;;;;;;2.39;100.00;98662.15;107571;1276;22527;-68
2023/03/05 09:42:27;;;;;;;4.10;1.70;;;;;;;2.46;100.00;98664.88;107564;1276;23242;-68
2023/03/05 09:45:14;;;;;;;5.10;1.60;;;;;;;2.58;100.00;98657.39;107464;1276;22530;-68
2023/03/05 09:48:21;;;;;;;5.90;1.60;;;;;;;2.68;100.00;98654.36;107417;1275;22520;-68
2023/03/05 09:50:54;;;;;;;7.90;2.20;;;;;;;2.87;100.00;98655.33;106888;1284;24573;-67
2023/03/05 09:53:53;;;;;;;4.70;1.70;;;;;;;3.01;100.00;98651.75;107611;1276;26541;-68
2023/03/05 09:56:22;;;;;;;;;;;;;;;3.01;100.00;98642.23;107591;1270;22515;-68
2023/03/05 09:58:52;;;;;;;6.60;1.50;;;;;;;2.90;100.00;98649.29;107546;1276;22619;-68
2023/03/05 10:01:28;;;;;;;4.10;1.70;;;;;;;2.99;100.00;98642.91;107470;1275;22618;-67
2023/03/05 10:04:08;;;;;;;3.50;1.30;;;;;;;3.03;100.00;98641.56;107550;1276;22665;-68
2023/03/05 10:06:48;;;;;;;3.10;1.20;;;;;;;2.97;100.00;98645.95;107538;1276;25236;-68
2023/03/05 10:09:29;;;;;;;2.40;1.20;;;;;;;2.81;100.00;98649.39;107541;1275;25501;-67
2023/03/05 10:12:13;;;;;;;4.60;1.60;;;;;;;2.58;100.00;98647.77;107548;1276;25325;-67
2023/03/05 10:14:43;;;;;;;4.30;1.50;;;;;;;2.39;100.00;98644.10;107463;1275;22536;-67
2023/03/05 10:17:38;;;;;;;4.90;1.70;;;;;;;2.29;100.00;98641.96;110351;1273;22214;-66
2023/03/05 10:20:24;;;;;;;6.40;2.00;;;;;;;2.17;100.00;98641.01;110386;1273;22301;-69
2023/03/05 10:22:57;;;;;;;4.40;1.90;;;;;;;2.03;100.00;98641.75;110273;1275;22445;-66
2023/03/05 10:26:01;;;;;;;8.00;3.60;;;;;;;1.91;100.00;98639.50;110413;1276;22866;-66
2023/03/05 10:28:41;;;;;;;5.10;1.50;;;;;;;1.77;100.00;98639.84;109999;1273;22308;-66
2023/03/05 10:31:20;;;;;;;7.50;3.10;;;;;;;1.67;100.00;98638.20;110184;1275;23030;-66
2023/03/05 10:33:55;;;;;;;7.70;3.10;;;;;;;1.75;100.00;98636.48;110153;1275;22866;-67
2023/03/05 10:36:44;;;;;;;6.50;3.10;;;;;;;1.89;100.00;98639.35;110379;1272;22192;-66
2023/03/05 10:39:12;;;;;;;3.20;1.50;;;;;;;1.98;100.00;98634.41;110403;1270;22708;-67
2023/03/05 10:42:14;;;;;;;9.20;3.00;;;;;;;1.99;100.00;98632.00;110379;1269;22191;-64
2023/03/05 10:44:50;;;;;;;4.70;2.20;;;;;;;1.94;100.00;98632.25;110384;1276;23658;-67
2023/03/05 10:47:29;;;;;;;;;;;;;;;2.00;100.00;98627.69;110246;1270;22505;-67
2023/03/05 10:49:58;;;;;;;2.70;1.00;;;;;;;2.07;100.00;98630.63;110171;1273;22247;-67
2023/03/05 10:52:37;;;;;;;3.30;1.10;;;;;;;2.09;100.00;98627.13;110327;1272;23175;-67
2023/03/05 10:55:16;;;;;;;4.40;1.00;;;;;;;2.16;100.00;98621.92;110279;1276;22203;-68
2023/03/05 10:57:45;;;;;;;5.10;1.20;;;;;;;2.27;100.00;98628.77;110402;1272;22340;-69
2023/03/05 11:00:24;;;;;;;5.00;1.00;;;;;;;2.32;100.00;98620.98;110173;1275;22187;-67
2023/03/05 11:03:01;;;;;;;2.90;0.80;;;;;;;2.35;100.00;98624.70;110374;1276;23086;-67
2023/03/05 11:05:36;;;;;;;4.00;1.10;;;;;;;2.44;100.00;98631.13;110460;1275;22176;-67
2023/03/05 11:08:29;;;;;;;3.60;0.90;;;;;;;2.46;100.00;98629.91;110321;1267;22204;-67
2023/03/05 11:11:11;;;;;;;5.10;1.50;;;;;;;2.40;100.00;98619.73;110404;1275;23350;-67
2023/03/05 11:13:58;;;;;;;3.60;1.30;;;;;;;2.38;100.00;98625.49;110443;1275;22286;-68
2023/03/05 11:16:29;;;;;;;5.40;1.20;;;;;;;2.22;100.00;98624.48;110437;1275;22382;-67
2023/03/05 11:19:19;;;;;;;4.40;1.60;;;;;;;1.98;100.00;98630.33;110419;1275;22489;-67
2023/03/05 11:22:19;;;;;;;4.20;1.40;;;;;;;1.73;100.00;98624.74;110427;1275;22990;-67
2023/03/05 11:25:14;;;;;;;3.20;1.10;;;;;;;1.60;100.00;98626.16;110393;1275;22244;-67
2023/03/05 11:28:02;;;;;;;3.30;1.20;;;;;;;1.52;100.00;98625.38;110370;1270;22447;-68
2023/03/05 11:30:36;;;;;;;2.70;1.00;;;;;;;1.47;100.00;98620.00;110377;1275;22417;-68
2023/03/05 11:33:09;;;;;;;4.60;1.60;;;;;;;1.46;100.00;98620.77;110357;1275;22238;-67
2023/03/05 11:35:39;;;;;;;4.40;1.00;;;;;;;1.44;100.00;98621.97;110416;1275;22899;-67
2023/03/05 11:38:23;;;;;;;3.10;0.80;;;;;;;1.47;100.00;98625.68;110404;1275;22748;-67
2023/03/05 11:40:54;;;;;;;3.90;1.40;;;;;;;1.53;100.00;98620.25;110449;1275;22860;-67
2023/03/05 11:43:24;;;;;;;4.10;1.50;;;;;;;1.51;100.00;98618.14;110350;1276;22190;-67
2023/03/05 11:46:01;;;;;;;5.40;1.90;;;;;;;1.58;100.00;98620.92;110421;1275;22909;-67
2023/03/05 11:48:49;;;;;;;4.60;1.80;;;;;;;1.62;100.00;98616.13;110393;1275;23066;-67
2023/03/05 11:51:31;;;;;;;8.10;2.30;;;;;;;1.61;100.00;98619.52;110045;1270;23381;-66
2023/03/05 11:54:04;;;;;;;3.00;1.10;;;;;;;1.66;100.00;98616.15;107496;1275;22704;-66
2023/03/05 11:56:35;;;;;;;3.00;1.30;;;;;;;1.76;100.00;98615.46;107725;1274;22524;-68
2023/03/05 11:59:25;;;;;;;3.90;1.20;;;;;;;1.82;100.00;98613.00;107674;1273;22582;-68
2023/03/05 12:01:55;;;;;;;4.50;1.30;;;;;;;1.97;100.00;98608.30;107725;1273;23130;-68
2023/03/05 12:04:23;;;;;;;5.00;1.60;;;;;;;2.09;100.00;98612.31;107794;1272;22624;-67
2023/03/05 12:06:59;;;;;;;4.10;1.50;;;;;;;2.19;100.00;98611.89;107694;1275;22914;-67
2023/03/05 12:09:40;;;;;;;4.20;1.10;;;;;;;2.19;100.00;98614.17;107417;1275;22628;-68
2023/03/05 12:12:42;;;;;;;2.70;1.10;;;;;;;2.06;100.00;98608.99;107588;1275;25397;-67
2023/03/05 12:15:11;;;;;;;3.80;1.10;;;;;;;1.96;100.00;98607.46;107156;1275;22693;-67
2023/03/05 12:17:43;;;;;;;3.90;1.10;;;;;;;1.87;100.00;98614.53;107568;1273;23223;-67
2023/03/05 12:20:53;;;;;;;2.30;0.90;;;;;;;1.86;100.00;98613.54;107550;1275;25462;-67
2023/03/05 12:23:22;;;;;;;4.10;1.20;;;;;;;1.89;100.00;98611.65;107748;1275;27709;-67
2023/03/05 12:25:56;;;;;;;3.10;1.10;;;;;;;1.88;100.00;98607.35;107611;1267;25425;-66
2023/03/05 12:28:28;;;;;;;2.80;0.90;;;;;;;1.92;100.00;98606.23;110344;1272;23132;-69
2023/03/05 12:31:00;;;;;;;3.90;1.00;;;;;;;2.05;100.00;98601.35;110370;1270;22307;-69